Time;durP1;ratioP1;P1;durP2;ratioP2;P2;SDS_P1;SDS_P2;PMS_P1;PMS_P2;Temp;Humidity;BMP_temperature;BMP_pressure;BME280_temperature;BME280_humidity;BME280_pressure;Samples;Min_cycle;Max_cycle;Signal;HPM_P1;HPM_P2
2023/06/27 00:02:21;;;;;;;4.00;1.95;;;16.80;77.80;;;;;;4822185;29;91684;-86
2023/06/27 00:04:47;;;;;;;7.05;2.70;;;16.80;78.00;;;;;;4822259;29;90868;-85
2023/06/27 00:07:13;;;;;;;7.80;2.28;;;16.70;78.20;;;;;;4821967;29;87856;-86
2023/06/27 00:09:39;;;;;;;10.77;2.33;;;16.70;78.70;;;;;;4823114;29;90127;-84
2023/06/27 00:12:06;;;;;;;5.97;2.28;;;16.70;79.40;;;;;;4823609;29;90473;-86
2023/06/27 00:14:33;;;;;;;4.50;1.38;;;16.70;79.90;;;;;;4807150;29;92213;-86
2023/06/27 00:17:00;;;;;;;3.35;1.65;;;16.60;79.80;;;;;;4806661;29;88617;-84
2023/06/27 00:19:26;;;;;;;9.15;2.60;;;16.60;80.70;;;;;;4822481;29;90578;-85
2023/06/27 00:21:51;;;;;;;4.60;1.73;;;16.60;80.60;;;;;;4807675;29;90006;-86
2023/06/27 00:24:17;;;;;;;6.22;2.78;;;16.50;81.30;;;;;;4806254;29;91497;-83
2023/06/27 00:26:43;;;;;;;6.75;2.03;;;16.50;81.60;;;;;;4808631;29;87717;-86
2023/06/27 00:29:08;;;;;;;3.80;1.63;;;16.50;81.60;;;;;;4822680;29;89086;-84
2023/06/27 00:31:34;;;;;;;8.15;1.92;;;16.50;82.30;;;;;;4823761;29;92717;-86
2023/06/27 00:34:00;;;;;;;6.95;2.00;;;16.40;82.50;;;;;;4807793;29;90787;-84
2023/06/27 00:36:25;;;;;;;5.78;2.03;;;16.40;82.60;;;;;;4807758;29;87752;-86
2023/06/27 00:38:51;;;;;;;7.47;2.50;;;16.40;83.00;;;;;;4823392;29;89874;-86
2023/06/27 00:41:17;;;;;;;7.50;2.13;;;16.40;83.10;;;;;;4821715;29;91332;-85
2023/06/27 00:43:42;;;;;;;6.35;2.15;;;16.30;83.20;;;;;;4822333;29;91940;-84
2023/06/27 00:46:10;;;;;;;8.60;2.25;;;16.30;83.20;;;;;;4822846;29;87777;-85
2023/06/27 00:48:36;;;;;;;8.20;2.63;;;16.30;83.70;;;;;;4822683;29;90186;-84
2023/06/27 00:51:03;;;;;;;6.97;2.05;;;16.30;83.50;;;;;;4823759;29;90446;-85
2023/06/27 00:53:29;;;;;;;12.38;2.50;;;16.30;83.50;;;;;;4821342;29;90909;-87
2023/06/27 00:55:55;;;;;;;6.95;2.78;;;16.30;83.70;;;;;;4822777;29;88306;-84
2023/06/27 00:58:21;;;;;;;10.90;2.05;;;16.30;84.10;;;;;;4806746;29;90672;-86
2023/06/27 01:00:49;;;;;;;8.35;2.53;;;16.20;83.80;;;;;;4822047;29;91167;-84
2023/06/27 01:03:15;;;;;;;9.02;2.95;;;16.30;84.20;;;;;;4822293;29;89499;-84
2023/06/27 01:05:42;;;;;;;7.90;2.53;;;16.20;84.00;;;;;;4824266;29;88836;-86
2023/06/27 01:08:10;;;;;;;9.50;2.38;;;16.20;84.50;;;;;;4824962;29;89118;-87
2023/06/27 01:10:41;;;;;;;12.32;2.70;;;16.20;84.60;;;;;;4809924;29;91512;-84
2023/06/27 01:13:15;;;;;;;11.10;2.67;;;16.20;85.00;;;;;;4809457;29;91443;-87
2023/06/27 01:15:41;;;;;;;9.55;2.58;;;16.10;85.10;;;;;;4825249;29;87727;-87
2023/06/27 01:18:06;;;;;;;6.20;2.30;;;16.10;85.00;;;;;;4826004;29;90430;-86
2023/06/27 01:20:32;;;;;;;9.18;2.88;;;16.10;84.90;;;;;;4825132;29;91203;-86
2023/06/27 01:23:29;;;;;;;9.65;2.85;;;16.00;85.60;;;;;;4825139;29;90924;-86
2023/06/27 01:26:05;;;;;;;7.65;2.65;;;16.00;85.80;;;;;;4809703;29;87898;-86
2023/06/27 01:28:32;;;;;;;11.20;3.00;;;16.00;86.20;;;;;;4824678;29;89300;-85
2023/06/27 01:31:02;;;;;;;9.10;3.00;;;16.00;86.40;;;;;;4824304;29;92594;-86
2023/06/27 01:33:54;;;;;;;8.80;2.45;;;15.90;86.60;;;;;;4809580;29;90856;-87
2023/06/27 01:36:28;;;;;;;11.35;2.63;;;15.80;87.00;;;;;;4810499;29;87452;-87
2023/06/27 01:39:01;;;;;;;13.38;3.30;;;15.80;87.30;;;;;;4825721;29;90499;-86
2023/06/27 01:41:30;;;;;;;6.20;2.23;;;15.80;87.30;;;;;;4809570;29;92449;-86
2023/06/27 01:44:01;;;;;;;9.30;3.28;;;15.80;87.50;;;;;;4809005;29;90494;-84
2023/06/27 01:46:27;;;;;;;9.00;2.53;;;15.70;87.10;;;;;;4809749;29;87930;-86
2023/06/27 01:48:55;;;;;;;13.00;2.83;;;15.70;87.30;;;;;;4825032;29;88937;-87
2023/06/27 01:51:20;;;;;;;11.98;2.60;;;15.80;87.30;;;;;;4824822;29;90995;-86
2023/06/27 01:53:46;;;;;;;11.00;2.28;;;15.70;87.60;;;;;;4825235;29;91255;-84
2023/06/27 01:56:12;;;;;;;7.35;2.50;;;15.80;87.30;;;;;;4824324;29;88422;-86
2023/06/27 01:58:38;;;;;;;13.65;3.40;;;15.80;87.50;;;;;;4824165;29;89606;-86
2023/06/27 02:01:04;;;;;;;13.88;2.22;;;15.70;87.50;;;;;;4825883;29;88639;-83
2023/06/27 02:03:30;;;;;;;13.18;2.47;;;15.80;87.70;;;;;;4799565;29;90050;-85
2023/06/27 02:05:56;;;;;;;10.07;2.97;;;15.70;87.70;;;;;;4824968;29;87867;-87
2023/06/27 02:08:21;;;;;;;9.52;2.15;;;15.70;87.80;;;;;;4823450;29;90441;-86
2023/06/27 02:10:47;;;;;;;14.90;2.75;;;15.70;87.90;;;;;;4824105;29;91848;-86
2023/06/27 02:13:12;;;;;;;11.50;2.47;;;15.70;87.40;;;;;;4824823;29;91183;-87
2023/06/27 02:15:38;;;;;;;12.77;2.63;;;15.70;87.80;;;;;;4823677;29;87600;-88
2023/06/27 02:18:04;;;;;;;6.57;2.92;;;15.70;87.80;;;;;;4824042;29;90412;-86
2023/06/27 02:20:30;;;;;;;11.45;2.30;;;15.70;87.80;;;;;;4823769;29;91388;-89
2023/06/27 02:22:56;;;;;;;10.65;2.67;;;15.70;88.00;;;;;;4822571;29;91729;-88
2023/06/27 02:25:22;;;;;;;13.98;2.47;;;15.60;87.90;;;;;;4823875;29;89333;-87
2023/06/27 02:27:47;;;;;;;9.43;1.92;;;15.60;88.10;;;;;;4808260;29;91161;-86
2023/06/27 02:30:13;;;;;;;12.27;2.25;;;15.60;88.10;;;;;;4824808;29;91126;-87
2023/06/27 02:32:39;;;;;;;12.20;2.50;;;15.60;88.30;;;;;;4824180;29;90011;-88
2023/06/27 02:35:05;;;;;;;15.90;2.40;;;15.60;88.20;;;;;;4808479;29;87832;-87
2023/06/27 02:37:30;;;;;;;12.68;2.67;;;15.60;88.30;;;;;;4809629;29;90198;-87
2023/06/27 02:39:57;;;;;;;8.85;2.45;;;15.60;88.50;;;;;;4823879;29;91744;-88
2023/06/27 02:42:22;;;;;;;8.77;2.13;;;15.60;88.20;;;;;;4809887;29;90134;-87
2023/06/27 02:44:48;;;;;;;10.75;2.58;;;15.60;88.50;;;;;;4824345;29;88593;-89
2023/06/27 02:47:15;;;;;;;17.10;2.70;;;15.60;88.20;;;;;;4823454;29;89164;-87
2023/06/27 02:49:42;;;;;;;8.85;2.17;;;15.60;88.70;;;;;;4808592;29;91417;-84
2023/06/27 02:52:07;;;;;;;14.30;2.78;;;15.50;88.80;;;;;;4823838;29;91253;-87
2023/06/27 02:54:33;;;;;;;12.23;2.72;;;15.50;88.90;;;;;;4823958;29;87766;-87
2023/06/27 02:56:59;;;;;;;11.52;2.13;;;15.50;89.00;;;;;;4825660;29;90014;-86
2023/06/27 02:59:25;;;;;;;9.98;2.80;;;15.50;89.20;;;;;;4823823;29;90101;-88
2023/06/27 03:01:50;;;;;;;11.63;2.42;;;15.40;89.30;;;;;;4824374;29;89936;-88
2023/06/27 03:04:22;;;;;;;11.13;2.10;;;15.40;89.70;;;;;;4809943;29;87438;-89
2023/06/27 03:06:48;;;;;;;10.52;2.50;;;15.30;89.40;;;;;;4825436;29;87358;-86
2023/06/27 03:09:15;;;;;;;13.82;2.78;;;15.40;89.40;;;;;;4807997;29;92807;-87
2023/06/27 03:11:41;;;;;;;11.32;2.63;;;15.40;89.60;;;;;;4809239;29;92559;-88
2023/06/27 03:14:06;;;;;;;7.97;1.98;;;15.30;89.50;;;;;;4823414;29;87871;-88
2023/06/27 03:16:32;;;;;;;10.05;2.38;;;15.30;89.60;;;;;;4823637;29;89144;-87
2023/06/27 03:18:57;;;;;;;8.40;2.20;;;15.30;89.70;;;;;;4823376;29;91279;-88
2023/06/27 03:21:23;;;;;;;16.73;2.65;;;15.30;89.70;;;;;;4823557;29;89781;-87
2023/06/27 03:23:48;;;;;;;13.88;3.10;;;15.30;89.90;;;;;;4824599;29;88400;-88
2023/06/27 03:26:14;;;;;;;9.23;2.30;;;15.30;89.90;;;;;;4808674;29;90329;-86
2023/06/27 03:28:40;;;;;;;8.05;2.50;;;15.30;90.00;;;;;;4823048;29;91618;-87
2023/06/27 03:31:06;;;;;;;9.48;2.47;;;15.30;90.10;;;;;;4822633;29;91108;-88
2023/06/27 03:33:31;;;;;;;9.30;2.85;;;15.20;90.30;;;;;;4821407;29;88930;-88
2023/06/27 03:35:57;;;;;;;12.05;2.42;;;15.20;90.20;;;;;;4808922;29;90575;-85
2023/06/27 03:38:23;;;;;;;10.73;2.33;;;15.20;90.30;;;;;;4806957;29;90026;-88
2023/06/27 03:40:49;;;;;;;12.65;3.20;;;15.20;90.30;;;;;;4808574;29;89870;-84
2023/06/27 03:43:15;;;;;;;7.95;2.13;;;15.20;90.30;;;;;;4808242;29;87759;-87
2023/06/27 03:45:40;;;;;;;9.77;2.20;;;15.10;90.30;;;;;;4808257;29;90329;-87
2023/06/27 03:48:07;;;;;;;15.40;2.90;;;15.10;90.30;;;;;;4824041;29;90394;-85
2023/06/27 03:50:32;;;;;;;15.88;3.17;;;15.10;90.40;;;;;;4823052;29;90854;-86
2023/06/27 03:53:01;;;;;;;12.18;2.40;;;15.10;90.40;;;;;;4823311;29;87720;-84
2023/06/27 03:55:27;;;;;;;10.60;2.53;;;15.00;90.60;;;;;;4823205;29;89731;-87
2023/06/27 03:57:53;;;;;;;13.45;3.28;;;15.00;90.70;;;;;;4806998;29;90250;-88
2023/06/27 04:00:18;;;;;;;12.20;2.17;;;15.00;90.90;;;;;;4823201;29;91167;-85
2023/06/27 04:02:44;;;;;;;10.40;1.92;;;14.90;90.90;;;;;;4823669;29;87401;-87
2023/06/27 04:05:10;;;;;;;9.45;2.42;;;14.90;91.00;;;;;;4807005;29;90312;-86
2023/06/27 04:07:35;;;;;;;10.98;2.63;;;14.90;91.30;;;;;;4808482;29;91287;-85
2023/06/27 04:10:01;;;;;;;8.30;2.38;;;14.80;91.30;;;;;;4823115;29;91175;-86
2023/06/27 04:12:27;;;;;;;10.82;2.45;;;14.80;91.50;;;;;;4823116;29;87915;-83
2023/06/27 04:14:52;;;;;;;10.43;2.50;;;14.80;91.40;;;;;;4824404;29;89442;-87
2023/06/27 04:17:18;;;;;;;5.47;1.90;;;14.80;91.40;;;;;;4822535;29;91634;-85
2023/06/27 04:19:43;;;;;;;10.82;2.40;;;14.80;91.40;;;;;;4823792;29;91132;-86
2023/06/27 04:22:09;;;;;;;5.10;1.85;;;14.80;91.60;;;;;;4809486;29;96317;-89
2023/06/27 04:24:35;;;;;;;15.80;2.75;;;14.80;91.80;;;;;;4823291;29;89177;-86
2023/06/27 04:27:00;;;;;;;9.32;2.13;;;14.80;91.70;;;;;;4824180;29;91521;-87
2023/06/27 04:29:26;;;;;;;10.75;3.28;;;14.80;91.80;;;;;;4823584;29;90898;-85
2023/06/27 04:31:51;;;;;;;9.85;2.50;;;14.80;92.00;;;;;;4822960;29;87640;-88
2023/06/27 04:34:17;;;;;;;15.98;2.35;;;14.80;92.20;;;;;;4822655;29;88962;-86
2023/06/27 04:36:43;;;;;;;16.63;3.28;;;14.80;92.30;;;;;;4822184;29;90592;-87
2023/06/27 04:39:10;;;;;;;17.30;3.10;;;14.80;92.20;;;;;;4823405;29;90261;-86
2023/06/27 04:41:36;;;;;;;16.88;2.95;;;14.80;92.30;;;;;;4810217;29;87944;-86
2023/06/27 04:44:01;;;;;;;17.50;3.08;;;14.80;92.20;;;;;;4826775;29;90325;-87
2023/06/27 04:46:28;;;;;;;12.68;3.30;;;14.80;92.30;;;;;;4825726;29;92476;-87
2023/06/27 04:49:01;;;;;;;9.85;2.70;;;14.90;92.50;;;;;;4825798;29;88386;-87
2023/06/27 04:51:28;;;;;;;14.15;3.40;;;14.90;92.50;;;;;;4825917;29;87767;-87
2023/06/27 04:53:54;;;;;;;14.25;3.03;;;14.90;92.40;;;;;;4810274;29;90211;-84
2023/06/27 04:56:20;;;;;;;15.18;2.47;;;14.90;92.40;;;;;;4825947;29;90072;-88
2023/06/27 04:58:46;;;;;;;11.93;2.60;;;15.00;92.30;;;;;;4825446;29;90964;-87
2023/06/27 05:01:11;;;;;;;18.60;3.17;;;15.00;92.30;;;;;;4825899;29;87791;-86
2023/06/27 05:03:37;;;;;;;18.10;3.53;;;15.10;92.40;;;;;;4825970;29;90318;-87
2023/06/27 05:06:04;;;;;;;18.02;3.30;;;15.20;92.30;;;;;;4811279;29;91625;-84
2023/06/27 05:08:30;;;;;;;15.75;2.88;;;15.20;92.50;;;;;;4810326;29;91389;-87
2023/06/27 05:10:56;;;;;;;14.82;3.15;;;15.30;92.70;;;;;;4825536;29;89022;-87
2023/06/27 05:13:22;;;;;;;16.05;2.75;;;15.40;92.40;;;;;;4809462;29;90423;-86
2023/06/27 05:15:47;;;;;;;20.05;3.22;;;15.40;92.20;;;;;;4824525;29;92276;-86
2023/06/27 05:18:14;;;;;;;16.00;3.33;;;15.50;91.90;;;;;;4810552;29;91585;-86
2023/06/27 05:20:40;;;;;;;18.30;3.25;;;15.60;91.90;;;;;;4810452;29;87912;-88
2023/06/27 05:23:06;;;;;;;15.48;3.15;;;15.70;91.70;;;;;;4825977;29;90122;-87
2023/06/27 05:25:32;;;;;;;13.27;3.50;;;15.70;91.60;;;;;;4809775;29;91028;-87
2023/06/27 05:27:58;;;;;;;15.38;3.22;;;15.80;91.60;;;;;;4825260;29;91237;-88
2023/06/27 05:30:26;;;;;;;13.57;2.80;;;15.90;91.50;;;;;;4825611;29;91596;-88
2023/06/27 05:32:51;;;;;;;11.32;3.60;;;15.90;91.30;;;;;;4826426;29;90497;-84
2023/06/27 05:35:17;;;;;;;14.07;3.00;;;16.00;91.00;;;;;;4825496;29;92032;-88
2023/06/27 05:37:42;;;;;;;22.85;3.17;;;16.00;91.20;;;;;;4824512;29;92257;-85
2023/06/27 05:40:09;;;;;;;14.98;3.33;;;16.10;91.20;;;;;;4826601;29;88480;-87
2023/06/27 05:42:35;;;;;;;15.07;2.92;;;16.20;90.80;;;;;;4826083;29;90707;-86
2023/06/27 05:45:02;;;;;;;14.27;2.97;;;16.20;91.00;;;;;;4826166;29;91575;-85
2023/06/27 05:47:27;;;;;;;17.20;3.25;;;16.20;90.90;;;;;;4826079;29;89284;-86
2023/06/27 05:49:53;;;;;;;15.57;3.08;;;16.30;90.70;;;;;;4809114;29;87818;-87
2023/06/27 05:52:19;;;;;;;11.98;2.70;;;16.40;90.80;;;;;;4809340;29;90406;-86
2023/06/27 05:54:44;;;;;;;17.92;3.03;;;16.60;90.60;;;;;;4809402;29;90794;-86
2023/06/27 05:57:10;;;;;;;16.92;2.88;;;16.60;90.30;;;;;;4810373;29;91106;-83
2023/06/27 05:59:36;;;;;;;17.35;3.42;;;16.70;90.10;;;;;;4825725;29;88177;-88
2023/06/27 06:02:03;;;;;;;12.65;2.80;;;16.80;89.70;;;;;;4809335;29;90245;-87
2023/06/27 06:04:29;;;;;;;11.23;3.17;;;16.90;90.00;;;;;;4823984;29;91916;-86
2023/06/27 06:06:55;;;;;;;17.75;3.88;;;16.90;89.70;;;;;;4824637;29;91240;-86
2023/06/27 06:09:20;;;;;;;14.77;3.38;;;17.00;89.10;;;;;;4823916;29;87054;-85
2023/06/27 06:11:46;;;;;;;16.25;2.83;;;17.10;88.70;;;;;;4825321;29;88030;-88
2023/06/27 06:14:12;;;;;;;12.10;3.38;;;17.20;88.30;;;;;;4825243;29;91925;-86
2023/06/27 06:16:37;;;;;;;14.40;2.75;;;17.30;89.00;;;;;;4823742;29;90914;-85
2023/06/27 06:19:03;;;;;;;17.45;4.05;;;17.40;88.00;;;;;;4824679;29;87618;-91
2023/06/27 06:21:30;;;;;;;17.73;3.47;;;17.40;87.60;;;;;;4808768;29;89239;-90
2023/06/27 06:23:56;;;;;;;13.02;4.20;;;17.50;87.10;;;;;;4808590;29;91086;-87
2023/06/27 06:26:22;;;;;;;11.90;3.10;;;17.50;86.80;;;;;;4808659;29;92033;-88
2023/06/27 06:28:47;;;;;;;13.40;2.72;;;17.60;86.80;;;;;;4824541;29;87390;-92
2023/06/27 06:31:16;;;;;;;13.25;2.97;;;17.70;86.20;;;;;;4823890;29;89090;-92
2023/06/27 06:33:45;;;;;;;21.75;3.97;;;17.80;86.30;;;;;;4823021;29;90429;-93
2023/06/27 06:36:12;;;;;;;11.60;3.22;;;17.90;85.60;;;;;;4809775;29;91201;-93
2023/06/27 06:38:38;;;;;;;14.00;3.22;;;18.00;85.20;;;;;;4809036;29;87549;-92
2023/06/27 06:41:04;;;;;;;13.98;3.17;;;18.10;84.30;;;;;;4824413;29;91542;-92
2023/06/27 06:43:30;;;;;;;15.43;3.47;;;18.20;84.70;;;;;;4824128;29;91139;-90
2023/06/27 06:45:56;;;;;;;11.57;2.72;;;18.40;84.30;;;;;;4824380;29;91502;-93
2023/06/27 06:48:22;;;;;;;14.00;2.92;;;18.50;84.50;;;;;;4822494;29;89695;-92
2023/06/27 06:50:50;;;;;;;13.80;3.63;;;18.70;83.20;;;;;;4824676;29;90443;-92
2023/06/27 06:53:15;;;;;;;12.23;3.42;;;18.80;82.70;;;;;;4808139;29;90600;-94
2023/06/27 06:55:41;;;;;;;9.93;2.67;;;18.90;82.20;;;;;;4824538;29;91188;-88
2023/06/27 06:58:06;;;;;;;16.85;3.45;;;19.00;81.00;;;;;;4824427;29;87689;-93
2023/06/27 07:00:32;;;;;;;15.38;3.38;;;19.10;81.20;;;;;;4823366;29;89938;-91
2023/06/27 07:02:58;;;;;;;13.73;3.30;;;19.20;80.10;;;;;;4824500;29;90382;-92
2023/06/27 07:05:23;;;;;;;19.88;4.18;;;19.30;80.20;;;;;;4824109;29;91342;-92
2023/06/27 07:07:50;;;;;;;14.80;2.88;;;19.30;79.50;;;;;;4824582;29;93746;-92
2023/06/27 07:10:15;;;;;;;15.45;3.60;;;19.40;79.90;;;;;;4824506;29;89042;-93
2023/06/27 07:12:41;;;;;;;12.05;3.53;;;19.50;79.70;;;;;;4823312;29;90925;-86
2023/06/27 07:15:08;;;;;;;17.13;2.83;;;19.60;78.40;;;;;;4808757;29;91273;-91
2023/06/27 07:17:33;;;;;;;17.48;3.47;;;19.60;78.10;;;;;;4809021;29;88558;-93
2023/06/27 07:20:00;;;;;;;12.82;2.65;;;19.70;79.70;;;;;;4823593;29;93857;-93
2023/06/27 07:22:26;;;;;;;15.35;2.78;;;19.80;78.30;;;;;;4823785;29;91514;-93
2023/06/27 07:24:51;;;;;;;12.05;2.83;;;19.90;78.60;;;;;;4822853;29;90515;-81
2023/06/27 07:27:17;;;;;;;18.58;3.65;;;20.00;77.90;;;;;;4823790;29;87386;-94
2023/06/27 07:29:43;;;;;;;14.52;3.22;;;20.00;77.40;;;;;;4824413;29;89199;-94
2023/06/27 07:32:11;;;;;;;11.32;2.97;;;20.10;77.10;;;;;;4822856;29;90223;-91
2023/06/27 07:34:37;;;;;;;10.57;2.95;;;20.20;76.70;;;;;;4823343;29;89403;-94
2023/06/27 07:37:03;;;;;;;10.90;3.33;;;20.30;77.60;;;;;;4823560;29;88447;-92
2023/06/27 07:39:29;;;;;;;11.43;2.25;;;20.40;76.30;;;;;;4823498;29;88992;-92
2023/06/27 07:41:54;;;;;;;9.65;2.75;;;20.50;75.40;;;;;;4823772;29;90673;-93
2023/06/27 07:44:20;;;;;;;7.35;2.15;;;20.50;75.00;;;;;;4822864;29;91748;-93
2023/06/27 07:46:46;;;;;;;14.27;3.45;;;20.60;74.10;;;;;;4823361;29;87852;-93
2023/06/27 07:49:11;;;;;;;10.23;3.08;;;20.70;75.00;;;;;;4822133;29;89663;-92
2023/06/27 07:51:37;;;;;;;11.05;2.85;;;20.80;74.50;;;;;;4823735;29;91230;-92
2023/06/27 07:54:03;;;;;;;9.05;2.40;;;20.90;74.40;;;;;;4825574;29;89998;-91
2023/06/27 07:56:29;;;;;;;12.02;2.08;;;21.00;73.20;;;;;;4808743;29;95536;-91
2023/06/27 07:58:55;;;;;;;15.50;2.75;;;21.10;73.30;;;;;;4808125;29;90046;-88
2023/06/27 08:01:21;;;;;;;11.05;2.38;;;21.20;72.50;;;;;;4825116;29;90916;-86
2023/06/27 08:03:47;;;;;;;10.68;2.97;;;21.30;72.70;;;;;;4822253;29;91957;-90
2023/06/27 08:06:12;;;;;;;8.52;3.10;;;21.30;71.50;;;;;;4823677;29;87682;-86
2023/06/27 08:08:38;;;;;;;12.75;2.47;;;21.40;70.60;;;;;;4825125;29;89433;-90
2023/06/27 08:11:04;;;;;;;12.40;2.50;;;21.50;70.40;;;;;;4822486;29;91351;-91
2023/06/27 08:13:29;;;;;;;9.25;2.58;;;21.70;69.60;;;;;;4823186;29;90219;-91
2023/06/27 08:15:55;;;;;;;11.13;2.95;;;21.80;70.30;;;;;;4807564;29;87736;-88
2023/06/27 08:18:21;;;;;;;11.93;2.25;;;22.00;68.40;;;;;;4821562;29;90792;-86
2023/06/27 08:20:46;;;;;;;10.65;2.55;;;22.00;67.40;;;;;;4821144;29;90526;-91
2023/06/27 08:23:12;;;;;;;10.20;2.72;;;21.90;69.00;;;;;;4820062;29;91245;-87
2023/06/27 08:25:38;;;;;;;10.02;2.33;;;22.10;67.50;;;;;;4819270;29;88802;-89
2023/06/27 08:28:03;;;;;;;16.33;2.60;;;22.30;67.30;;;;;;4819483;29;89091;-85
2023/06/27 08:30:29;;;;;;;7.72;2.53;;;22.50;67.50;;;;;;4820039;29;90767;-87
2023/06/27 08:32:56;;;;;;;10.25;1.73;;;22.60;68.20;;;;;;4823236;29;91080;-89
2023/06/27 08:35:22;;;;;;;25.48;3.65;;;22.70;66.20;;;;;;4823727;29;87437;-88
2023/06/27 08:37:47;;;;;;;12.48;2.92;;;22.80;65.40;;;;;;4822732;29;90440;-89
2023/06/27 08:40:19;;;;;;;12.45;2.50;;;22.80;64.30;;;;;;4821745;29;91087;-90
2023/06/27 08:42:45;;;;;;;14.50;2.50;;;22.80;66.40;;;;;;4822322;29;91213;-88
2023/06/27 08:45:11;;;;;;;9.90;2.47;;;22.90;66.00;;;;;;4823492;29;87730;-87
2023/06/27 08:47:39;;;;;;;8.93;2.60;;;22.90;65.00;;;;;;4824491;29;89393;-89
2023/06/27 08:50:07;;;;;;;13.10;2.88;;;23.00;64.40;;;;;;4805976;29;91246;-90
2023/06/27 08:52:38;;;;;;;12.63;2.47;;;23.10;65.80;;;;;;4823119;29;93204;-88
2023/06/27 08:55:06;;;;;;;11.40;2.10;;;23.00;65.00;;;;;;4822167;29;87614;-86
2023/06/27 08:57:33;;;;;;;8.18;1.95;;;23.00;62.40;;;;;;4806697;29;90524;-87
2023/06/27 09:00:09;;;;;;;9.65;2.40;;;22.80;63.90;;;;;;4807553;29;90298;-89
2023/06/27 09:02:35;;;;;;;12.23;2.25;;;22.80;62.70;;;;;;4806862;29;90100;-87
2023/06/27 09:05:01;;;;;;;8.95;2.95;;;22.90;63.20;;;;;;4807961;29;88103;-82
2023/06/27 09:07:27;;;;;;;12.02;2.53;;;22.90;63.30;;;;;;4808029;29;90550;-89
2023/06/27 09:09:54;;;;;;;8.35;2.10;;;22.90;63.90;;;;;;4822079;29;90439;-88
2023/06/27 09:12:21;;;;;;;8.57;2.22;;;22.90;63.60;;;;;;4821839;29;91388;-84
2023/06/27 09:14:47;;;;;;;7.93;1.80;;;23.00;63.10;;;;;;4822474;29;88748;-88
2023/06/27 09:17:13;;;;;;;6.45;1.52;;;23.10;63.20;;;;;;4821335;29;90185;-88
2023/06/27 09:19:39;;;;;;;6.07;1.73;;;23.20;62.70;;;;;;4821849;29;91721;-87
2023/06/27 09:22:05;;;;;;;5.45;1.70;;;23.40;61.50;;;;;;4821982;29;91252;-87
2023/06/27 09:24:32;;;;;;;9.15;2.03;;;23.40;60.70;;;;;;4821515;29;87420;-88
2023/06/27 09:26:57;;;;;;;6.40;1.98;;;23.40;60.40;;;;;;4826171;29;88013;-86
2023/06/27 09:29:32;;;;;;;8.52;1.90;;;23.50;62.50;;;;;;4826775;29;88672;-86
2023/06/27 09:32:09;;;;;;;7.55;1.77;;;23.70;58.10;;;;;;4810121;29;90085;-86
2023/06/27 09:34:36;;;;;;;12.18;1.88;;;23.70;59.30;;;;;;4825151;29;87542;-86
2023/06/27 09:37:02;;;;;;;9.65;3.10;;;23.60;59.20;;;;;;4809024;29;89404;-83
2023/06/27 09:39:28;;;;;;;9.05;2.10;;;23.60;59.80;;;;;;4824908;29;92187;-88
2023/06/27 09:41:54;;;;;;;12.98;1.90;;;23.70;59.20;;;;;;4827030;29;91961;-88
2023/06/27 09:44:22;;;;;;;11.35;2.42;;;23.70;57.60;;;;;;4810124;29;87535;-87
2023/06/27 09:46:49;;;;;;;6.05;1.45;;;23.70;57.00;;;;;;4826048;29;90193;-87
2023/06/27 09:49:16;;;;;;;7.38;1.90;;;23.70;56.40;;;;;;4809666;29;91577;-87
2023/06/27 09:51:45;;;;;;;6.85;1.00;;;23.70;57.00;;;;;;4809855;29;91149;-86
2023/06/27 09:54:12;;;;;;;6.03;1.42;;;23.80;53.40;;;;;;4826033;29;87580;-88
2023/06/27 09:56:38;;;;;;;8.73;1.48;;;23.90;54.60;;;;;;4810667;29;90422;-85
2023/06/27 09:59:11;;;;;;;8.30;2.15;;;24.00;55.30;;;;;;4825253;29;90314;-87
2023/06/27 10:01:37;;;;;;;;;;;24.10;55.60;;;;;;4825582;29;91177;-88
2023/06/27 10:04:04;;;;;;;13.52;2.08;;;24.10;56.20;;;;;;4824971;29;88405;-87
2023/06/27 10:06:30;;;;;;;7.82;1.88;;;24.20;54.60;;;;;;4808626;29;90301;-87
2023/06/27 10:08:56;;;;;;;9.98;1.40;;;24.30;55.90;;;;;;4809524;29;91539;-86
2023/06/27 10:11:23;;;;;;;9.55;1.85;;;24.30;54.90;;;;;;4808514;29;90697;-87
2023/06/27 10:13:49;;;;;;;5.47;1.33;;;24.50;53.80;;;;;;4824242;29;87931;-87
2023/06/27 10:16:17;;;;;;;8.75;1.02;;;24.60;52.90;;;;;;4809060;29;90020;-87
2023/06/27 10:18:43;;;;;;;3.67;1.38;;;24.60;50.20;;;;;;4810296;29;90353;-87
2023/06/27 10:21:09;;;;;;;8.77;1.40;;;24.30;51.00;;;;;;4811274;29;91225;-88
2023/06/27 10:23:37;;;;;;;4.80;1.00;;;24.20;51.80;;;;;;4823905;29;87442;-86
2023/06/27 10:26:03;;;;;;;3.97;0.88;;;24.30;51.20;;;;;;4808484;29;89134;-86
2023/06/27 10:28:32;;;;;;;3.65;1.00;;;24.40;49.50;;;;;;4823408;29;91980;-86
2023/06/27 10:30:58;;;;;;;7.65;0.95;;;24.60;51.30;;;;;;4823677;29;91899;-87
2023/06/27 10:33:28;;;;;;;3.22;0.80;;;24.80;48.00;;;;;;4824378;29;87763;-87
2023/06/27 10:36:05;;;;;;;5.95;1.05;;;24.90;46.50;;;;;;4825013;29;90462;-86
2023/06/27 10:38:39;;;;;;;5.00;0.95;;;25.00;46.80;;;;;;4807407;29;90436;-86
2023/06/27 10:41:06;;;;;;;4.75;0.80;;;25.10;45.10;;;;;;4824008;29;90335;-88
2023/06/27 10:43:47;;;;;;;5.22;1.17;;;25.10;45.30;;;;;;4808924;29;87323;-87
2023/06/27 10:46:21;;;;;;;2.60;0.70;;;25.10;46.00;;;;;;4824335;29;89538;-89
2023/06/27 10:49:01;;;;;;;4.47;0.90;;;25.20;46.30;;;;;;4823895;29;91382;-87
2023/06/27 10:51:35;;;;;;;4.88;1.15;;;25.30;47.20;;;;;;4823945;29;89338;-85
2023/06/27 10:54:06;;;;;;;;;;;25.40;47.60;;;;;;4825075;29;88463;-85
2023/06/27 10:56:43;;;;;;;4.85;1.23;;;25.50;48.80;;;;;;4825447;29;90328;-87
2023/06/27 10:59:19;;;;;;;4.50;1.13;;;25.60;50.70;;;;;;4822396;29;91523;-85
2023/06/27 11:01:59;;;;;;;10.90;1.20;;;25.50;47.50;;;;;;4824083;29;94520;-83
2023/06/27 11:04:41;;;;;;;5.43;1.40;;;25.50;48.40;;;;;;4824400;29;87691;-87
2023/06/27 11:07:09;;;;;;;6.53;1.05;;;25.50;48.70;;;;;;4823837;29;88983;-86
2023/06/27 11:09:36;;;;;;;5.97;0.70;;;25.50;46.70;;;;;;4807765;29;90404;-86
2023/06/27 11:12:11;;;;;;;2.78;0.50;;;25.50;46.50;;;;;;4809153;29;89665;-86
2023/06/27 11:14:42;;;;;;;1.95;0.60;;;25.40;44.90;;;;;;4808736;29;87384;-85
2023/06/27 11:17:08;;;;;;;4.38;1.02;;;25.50;44.50;;;;;;4807913;29;90038;-85
2023/06/27 11:19:36;;;;;;;3.42;0.70;;;25.50;46.60;;;;;;4822656;29;92303;-85
2023/06/27 11:22:02;;;;;;;4.65;0.80;;;25.40;45.80;;;;;;4823555;29;92212;-86
2023/06/27 11:24:29;;;;;;;3.35;0.60;;;25.50;45.40;;;;;;4823272;29;87169;-85
2023/06/27 11:26:56;;;;;;;4.53;0.70;;;25.40;44.60;;;;;;4824754;29;90360;-86
2023/06/27 11:29:22;;;;;;;3.60;0.90;;;25.40;45.30;;;;;;4807309;29;90306;-86
2023/06/27 11:31:49;;;;;;;5.47;0.88;;;25.40;45.20;;;;;;4808074;29;89870;-84
2023/06/27 11:34:16;;;;;;;2.40;0.40;;;25.40;46.70;;;;;;4808434;29;87887;-87
2023/06/27 11:36:43;;;;;;;3.72;0.77;;;25.50;46.60;;;;;;4808280;29;89302;-82
2023/06/27 11:39:12;;;;;;;4.78;0.60;;;25.70;45.40;;;;;;4824312;29;91225;-83
2023/06/27 11:41:42;;;;;;;4.90;0.80;;;25.70;44.20;;;;;;4822634;29;91097;-85
2023/06/27 11:44:12;;;;;;;3.20;0.70;;;25.50;44.50;;;;;;4823636;29;88634;-83
2023/06/27 11:46:47;;;;;;;4.47;1.20;;;25.40;43.00;;;;;;4807941;29;89138;-83
2023/06/27 11:49:13;;;;;;;1.77;0.47;;;25.10;44.70;;;;;;4807997;29;91664;-85
2023/06/27 11:51:40;;;;;;;4.25;0.77;;;25.00;45.60;;;;;;4823061;29;90197;-85
2023/06/27 11:54:07;;;;;;;2.78;0.80;;;24.90;45.40;;;;;;4807801;29;87467;-84
2023/06/27 11:56:38;;;;;;;2.55;0.60;;;24.90;43.90;;;;;;4823506;29;88590;-83
2023/06/27 11:59:06;;;;;;;7.22;0.75;;;25.00;45.00;;;;;;4807639;29;91452;-85
2023/06/27 12:01:33;;;;;;;4.32;0.88;;;25.10;45.20;;;;;;4823957;29;91709;-87
2023/06/27 12:04:10;;;;;;;3.67;0.93;;;25.10;44.10;;;;;;4807761;29;87673;-88
2023/06/27 12:06:36;;;;;;;3.58;1.15;;;25.10;44.70;;;;;;4807831;29;89067;-85
2023/06/27 12:09:07;;;;;;;3.30;1.05;;;25.20;44.20;;;;;;4823596;29;91087;-86
2023/06/27 12:11:35;;;;;;;4.28;0.68;;;25.20;43.40;;;;;;4823380;29;92431;-86
2023/06/27 12:14:02;;;;;;;4.95;0.85;;;25.20;45.80;;;;;;4807483;29;87658;-86
2023/06/27 12:16:32;;;;;;;3.55;0.90;;;25.20;45.00;;;;;;4806721;29;89339;-87
2023/06/27 12:19:05;;;;;;;18.60;1.95;;;25.20;44.70;;;;;;4806710;29;91318;-87
2023/06/27 12:21:31;;;;;;;;;;;25.10;46.50;;;;;;4807443;29;91040;-87
2023/06/27 12:23:57;;;;;;;4.97;0.93;;;25.00;45.70;;;;;;4824759;29;87497;-88
2023/06/27 12:26:22;;;;;;;3.80;0.77;;;24.80;46.30;;;;;;4822925;29;90296;-87
2023/06/27 12:28:55;;;;;;;6.90;1.20;;;24.70;45.50;;;;;;4822557;29;90023;-86
2023/06/27 12:31:20;;;;;;;4.32;0.73;;;24.50;46.20;;;;;;4822552;29;89938;-86
2023/06/27 12:33:46;;;;;;;3.95;0.65;;;24.30;46.30;;;;;;4822494;29;88509;-86
2023/06/27 12:36:14;;;;;;;4.22;0.95;;;24.20;47.10;;;;;;4823721;29;89858;-87
2023/06/27 12:38:40;;;;;;;4.07;0.73;;;24.10;47.60;;;;;;4823579;29;94251;-84
2023/06/27 12:41:05;;;;;;;3.90;0.82;;;23.90;47.90;;;;;;4806993;29;91150;-88
2023/06/27 12:43:31;;;;;;;5.18;0.70;;;23.80;48.00;;;;;;4823041;29;87714;-85